LSZS Airport Information

Runway Information
Runway 03 Length 5905 ft width 130 ft
Elevation 5600 ft Threshold 0 ft Heading 29
Runway 21 Length 5905 ft Width 130 ft
Elevation 5574 ft Threshold 360 ft Heading 209
Airport Frequencies
Type A/G Name GLIDER Frequency 123.67 MHZ
Type ATIS Name ATIS Frequency 136.6 MHZ
Type GND Name GND Frequency 121.6 MHZ
Type INFO Name INFO Frequency 138.05 MHZ
Type TWR Name TWR Frequency 135.325 MHZ
Airport Navaids
Airport Weather Information & NOTAM
ADDS - METARS form results

(1241 UTC 18 October 2018)
Data provider http://aviationweather.gov/metar/data/
 
METAR text: LSZS 181220Z VRB02KT 9999 FEW060 14/03 Q1020 RMK N
Conditions at: LSZS (SAMEDAN , CH) observed 1220 UTC 18 October 2018
Temperature: 14.0°C (57°F)
Dewpoint: 3.0°C (37°F) [RH = 47%]
Pressure (altimeter): 30.12 inches Hg (1020.0 mb)
Winds: variable direction winds at 2 MPH (2 knots; 1.0 m/s)
Visibility: 6 or more miles (10+ km)
Ceiling: at least 12,000 feet AGL
Clouds: few clouds at 6000 feet AGL
Weather: no significant weather observed at this time

METAR text: LSZS 181150Z VRB01KT 9999 FEW060 13/03 Q1020 RMK M
Conditions at: LSZS (SAMEDAN , CH) observed 1150 UTC 18 October 2018
Temperature: 13.0°C (55°F)
Dewpoint: 3.0°C (37°F) [RH = 51%]
Pressure (altimeter): 30.12 inches Hg (1020.0 mb)
Winds: variable direction winds at 1 MPH (1 knots; 0.5 m/s)
Visibility: 6 or more miles (10+ km)
Ceiling: at least 12,000 feet AGL
Clouds: few clouds at 6000 feet AGL
Weather: no significant weather observed at this time

Forecast for: LSZS (SAMEDAN , CH)
Text: TAF LSZS 181125Z 1812/1821 VRB03KT CAVOK TX14/1813Z
Forecast period: 1200 to 2100 UTC 18 October 2018
Forecast type: FROM: standard forecast or significant change
Winds: variable direction winds at 3 MPH (3 knots; 1.5 m/s)
Visibility: 6 or more miles 10+ km)
Ceiling: unknown
Clouds: missing
Weather: no significant weather forecast for this period
Text: TEMPO 1812/1816 9999 FEW040
Forecast period: 1200 to 1600 UTC 18 October 2018
Forecast type: TEMPORARY: The following changes expected for less than half the time period
Visibility: 6 or more miles 10+ km)
Ceiling: at least 12,000 feet AGL
Clouds: few clouds at 4000 feet AGL
Weather: no significant weather forecast for this period
Text: PROB30 1812/1816 22010KT
Forecast period: 1200 to 1600 UTC 18 October 2018
Forecast type: PROBABLE: 30 percent likelihood of the following during this time
Winds: from the SW (220 degrees) at 12 MPH (10 knots; 5.1 m/s)
Visibility: missing
Ceiling: unknown
Clouds: missing
Weather: no significant weather forecast for this period